หน้าหลัก
METAR-TAF:

METAR-TAF

ท่าอากาศยาน :

เบลฟัสต์, ไอร์แลนด์เหนือ

ละติจูด: 54-36N, ลองจิจูด: 005-53W, ความสูง: 5 ม.

การสังเกตสภาพอากาศปัจจุบัน

รายงานได้ทำขึ้นเมื่อ 20 นาทีที่แล้ว ณ เวลา 04:20 UTC
ลม 8 นอตจากใต้
อุณหภูมิ 12°C
ความชื้น 88%
ความกดอากาศ 1009 hPa
ทัศนวิสัย 10 กม. หรือมากกว่า
มีเมฆน้อยที่ความสูง 4000 ฟุต

METAR: EGAC 130420Z AUTO 17008KT 9999 FEW040 12/10 Q1009

เวลา: 05:40 (04:40 UTC)

การพยากรณ์

รายงานได้ทำขึ้นเมื่อ 11 ชั่วโมงและ 38 นาทีที่แล้ว ณ เวลา 17:02 UTC
การพยากรณ์มีผลตั้งแต่วันที่ 12 ณ เวลา 18 UTC จนถึงวันที่ 12 ณ เวลา 22 UTC
ลม 3 นอตจากทิศทางซึ่งแปรผันได้
ทัศนวิสัย 10 กม. หรือมากกว่า
มีเมฆกระจายเป็นบางส่วนที่ความสูง 4000 ฟุต

TAF: EGAC 121702Z 1218/1222 VRB03KT 9999 SCT040

สังเกตการณ์สภาพอากาศและพยากรณ์อากาศของสนามบินมากกว่า 4000 แห่ง (รายงาน METAR และ TAF).

สถานีที่ดูได้จะแสดงไว้ด้วยจุดสีเหลืองและสีแดงบนแผนที่.

เลื่อนเมาส์ไปเหนือจุดเพื่อดูชื่อสถานี.

แล้วคลิกเพื่อดูสังเกตการณ์และการพยากรณ์สภาพอากาศ.

ในการเปลี่ยนแผนที่: คลิกที่ปุ่มสีเขียวที่มีกากบาทสีดำเพื่อซูมเข้า; ที่ปุ่มสีเขียวที่มีขีดเพื่อซูมออก; หรือที่ลูกศรสีเขียวเพื่อไปยังแผนที่ที่อยู่ติดกัน.


METAR-TAF: